createdAt,value
2019-05-17T00:00:27.369Z,0.00
2019-05-17T00:01:27.032Z,0.00
2019-05-17T00:02:26.612Z,0.00
2019-05-17T00:03:27.026Z,0.00
2019-05-17T00:04:26.986Z,0.00
2019-05-17T00:05:26.556Z,0.00
2019-05-17T00:06:27.561Z,0.00
2019-05-17T00:07:27.278Z,0.00
2019-05-17T00:08:33.923Z,0.00
2019-05-17T00:09:26.780Z,0.00
2019-05-17T00:10:26.529Z,0.00
2019-05-17T00:11:27.300Z,0.00
2019-05-17T00:12:27.104Z,0.00
2019-05-17T00:13:26.843Z,0.00
2019-05-17T00:14:27.096Z,0.00
2019-05-17T00:15:27.355Z,0.00
2019-05-17T00:16:26.820Z,0.00
2019-05-17T00:17:26.735Z,0.00
2019-05-17T00:18:26.463Z,0.00
2019-05-17T00:19:26.369Z,0.00
2019-05-17T00:20:26.626Z,0.00
2019-05-17T00:21:27.474Z,0.00
2019-05-17T00:22:26.988Z,0.00
2019-05-17T00:23:26.865Z,0.00
2019-05-17T00:24:26.562Z,0.00
2019-05-17T00:25:27.396Z,0.00
2019-05-17T00:26:26.979Z,0.00
2019-05-17T00:27:26.505Z,0.00
2019-05-17T00:28:26.923Z,0.00
2019-05-17T00:29:26.422Z,0.00
2019-05-17T00:30:26.553Z,0.00
2019-05-17T00:31:26.337Z,0.00
2019-05-17T00:32:27.412Z,0.00
2019-05-17T00:33:27.252Z,0.00
2019-05-17T00:34:27.074Z,0.00
2019-05-17T00:35:26.799Z,0.00
2019-05-17T00:36:26.998Z,0.00
2019-05-17T00:37:26.409Z,0.00
2019-05-17T00:38:27.429Z,0.00
2019-05-17T00:39:27.185Z,0.00
2019-05-17T00:40:27.004Z,0.00
2019-05-17T00:41:26.960Z,0.00
2019-05-17T00:42:26.435Z,0.00
2019-05-17T00:43:26.275Z,0.00
2019-05-17T00:44:27.170Z,0.00
2019-05-17T00:45:26.704Z,0.00
2019-05-17T00:46:26.699Z,0.00
2019-05-17T00:47:26.595Z,0.00
2019-05-17T00:48:26.446Z,0.00
2019-05-17T00:49:26.460Z,0.00
2019-05-17T00:50:27.336Z,0.00
2019-05-17T00:51:27.251Z,0.00
2019-05-17T00:52:27.153Z,0.00
2019-05-17T00:53:26.935Z,0.00
2019-05-17T00:54:26.906Z,0.00
2019-05-17T00:55:26.844Z,0.00
2019-05-17T00:56:26.653Z,0.00
2019-05-17T00:57:27.206Z,0.00
2019-05-17T00:58:26.272Z,0.00
2019-05-17T00:59:26.298Z,0.00
2019-05-17T01:00:27.630Z,0.00
2019-05-17T01:01:26.908Z,0.00
2019-05-17T01:02:26.847Z,0.00
2019-05-17T01:03:26.786Z,0.00
2019-05-17T01:04:24.870Z,0.00
2019-05-17T01:05:24.848Z,0.00
2019-05-17T01:06:24.820Z,0.00
2019-05-17T01:07:26.888Z,0.00
2019-05-17T01:08:26.500Z,0.00
2019-05-17T01:09:27.162Z,0.00
2019-05-17T01:10:27.093Z,0.00
2019-05-17T01:11:26.943Z,0.00
2019-05-17T01:12:26.968Z,0.00
2019-05-17T01:13:26.566Z,0.00
2019-05-17T01:14:26.471Z,0.00
2019-05-17T01:15:24.597Z,0.00
2019-05-17T01:16:24.598Z,0.00
2019-05-17T01:17:26.704Z,0.00
2019-05-17T01:18:26.536Z,0.00
2019-05-17T01:19:26.867Z,0.00
2019-05-17T01:20:24.483Z,0.00
2019-05-17T01:21:26.307Z,0.00
2019-05-17T01:22:26.248Z,0.00
2019-05-17T01:23:24.405Z,0.00
2019-05-17T01:24:24.397Z,0.00
2019-05-17T01:25:24.354Z,0.00
2019-05-17T01:26:26.574Z,0.00
2019-05-17T01:27:26.265Z,0.00
2019-05-17T01:28:24.280Z,0.00
2019-05-17T01:29:24.252Z,0.00
2019-05-17T01:30:26.498Z,0.00
2019-05-17T01:31:26.493Z,0.00
2019-05-17T01:32:26.526Z,0.00
2019-05-17T01:33:26.110Z,0.00
2019-05-17T01:34:24.140Z,0.00
2019-05-17T01:35:26.465Z,0.00
2019-05-17T01:36:26.224Z,0.00
2019-05-17T01:37:24.059Z,0.00
2019-05-17T01:38:24.034Z,0.00
2019-05-17T01:39:24.008Z,0.00
2019-05-17T01:40:26.314Z,0.00
2019-05-17T01:41:23.952Z,0.00
2019-05-17T01:42:23.934Z,0.00
2019-05-17T01:43:23.912Z,0.00
2019-05-17T01:44:23.879Z,0.00
2019-05-17T01:45:23.852Z,0.00
2019-05-17T01:46:23.836Z,0.00
2019-05-17T01:47:23.814Z,0.00
2019-05-17T01:48:23.783Z,0.00
2019-05-17T01:49:23.760Z,0.00
2019-05-17T01:50:30.927Z,0.00
2019-05-17T01:52:23.820Z,0.00
2019-05-17T01:53:16.751Z,0.00
2019-05-17T01:55:09.465Z,0.00
2019-05-17T01:56:17.033Z,0.00
2019-05-17T01:58:09.790Z,0.00
2019-05-17T01:59:02.290Z,0.00
2019-05-17T02:00:02.267Z,0.00
2019-05-17T02:01:02.232Z,0.00
2019-05-17T02:02:02.219Z,0.00
2019-05-17T02:03:02.193Z,0.00
2019-05-17T02:04:02.166Z,0.00
2019-05-17T02:05:02.139Z,0.00
2019-05-17T02:06:02.112Z,0.00
2019-05-17T02:07:02.088Z,0.00
2019-05-17T02:08:02.068Z,0.00
2019-05-17T02:09:02.047Z,0.00
2019-05-17T02:10:02.061Z,0.00
2019-05-17T02:11:01.991Z,0.00
2019-05-17T02:12:01.966Z,0.00
2019-05-17T02:13:01.941Z,0.00
2019-05-17T02:14:01.916Z,0.00
2019-05-17T02:15:01.903Z,0.00
2019-05-17T02:16:01.861Z,0.00
2019-05-17T02:17:01.862Z,0.00
2019-05-17T02:18:01.810Z,0.00
2019-05-17T02:19:01.796Z,0.00
2019-05-17T02:20:01.803Z,0.00
2019-05-17T02:21:01.741Z,0.00
2019-05-17T02:22:01.721Z,0.00
2019-05-17T02:23:01.695Z,0.00
2019-05-17T02:24:01.667Z,0.00
2019-05-17T02:25:01.723Z,0.00
2019-05-17T02:26:01.610Z,0.00
2019-05-17T02:27:01.592Z,0.00
2019-05-17T02:28:01.969Z,0.00
2019-05-17T02:29:01.543Z,0.00
2019-05-17T02:30:02.510Z,0.00
2019-05-17T02:31:03.414Z,0.00
2019-05-17T02:32:03.903Z,0.00
2019-05-17T02:33:03.815Z,0.00
2019-05-17T02:34:03.061Z,0.00
2019-05-17T02:35:03.432Z,0.00
2019-05-17T02:36:02.784Z,0.00
2019-05-17T02:37:03.040Z,0.00
2019-05-17T02:38:02.824Z,0.00
2019-05-17T02:39:03.671Z,0.00
2019-05-17T02:40:06.120Z,0.00
2019-05-17T02:41:03.273Z,0.00
2019-05-17T02:42:02.862Z,0.00
2019-05-17T02:43:03.228Z,0.00
2019-05-17T02:44:02.312Z,0.00
2019-05-17T02:45:03.215Z,0.00
2019-05-17T02:46:03.631Z,0.00
2019-05-17T02:47:03.143Z,0.00
2019-05-17T02:48:03.933Z,0.00
2019-05-17T02:49:03.007Z,0.00
2019-05-17T02:50:01.025Z,0.00
2019-05-17T02:51:03.580Z,0.00
2019-05-17T02:52:03.205Z,0.00
2019-05-17T02:53:03.900Z,0.00
2019-05-17T02:54:04.252Z,0.00
2019-05-17T02:55:04.016Z,0.00
2019-05-17T02:56:03.172Z,0.00
2019-05-17T02:57:03.258Z,0.00
2019-05-17T02:58:03.200Z,0.00
2019-05-17T02:59:03.294Z,0.00
2019-05-17T03:00:04.317Z,0.00
2019-05-17T03:01:03.737Z,0.00
2019-05-17T03:02:03.559Z,0.00
2019-05-17T03:03:03.333Z,0.00
2019-05-17T03:04:03.585Z,0.00
2019-05-17T03:05:03.905Z,4.00
2019-05-17T03:06:03.194Z,4.00
2019-05-17T03:07:03.466Z,4.00
2019-05-17T03:08:03.880Z,0.00
2019-05-17T03:09:03.365Z,4.00
2019-05-17T03:10:13.796Z,8.00
2019-05-17T03:11:03.245Z,4.00
2019-05-17T03:12:03.290Z,4.00
2019-05-17T03:13:03.640Z,8.00
2019-05-17T03:14:03.684Z,8.00
2019-05-17T03:15:03.802Z,8.00
2019-05-17T03:16:03.062Z,8.00
2019-05-17T03:17:03.155Z,8.00
2019-05-17T03:18:03.598Z,12.00
2019-05-17T03:19:03.810Z,12.00
2019-05-17T03:20:03.594Z,12.00
2019-05-17T03:21:03.556Z,16.00
2019-05-17T03:22:04.417Z,20.00
2019-05-17T03:23:03.315Z,20.00
2019-05-17T03:24:03.247Z,24.00
2019-05-17T03:25:03.465Z,28.00
2019-05-17T03:26:03.200Z,28.00
2019-05-17T03:27:02.820Z,32.00
2019-05-17T03:28:03.008Z,32.00
2019-05-17T03:29:03.131Z,40.00
2019-05-17T03:30:04.283Z,44.00
2019-05-17T03:31:06.820Z,44.00
2019-05-17T03:32:07.333Z,48.00
2019-05-17T03:33:06.199Z,52.00
2019-05-17T03:34:05.595Z,56.00
2019-05-17T03:35:06.017Z,60.00
2019-05-17T03:36:05.357Z,64.00
2019-05-17T03:37:05.415Z,68.00
2019-05-17T03:37:59.824Z,76.00
2019-05-17T03:39:02.888Z,76.00
2019-05-17T03:40:04.601Z,80.00
2019-05-17T03:41:13.384Z,88.00
2019-05-17T03:42:02.417Z,92.00
2019-05-17T03:43:02.544Z,100.00
2019-05-17T03:44:02.894Z,104.00
2019-05-17T03:45:02.634Z,108.00
2019-05-17T03:46:02.431Z,116.00
2019-05-17T03:47:02.146Z,124.00
2019-05-17T03:47:59.577Z,128.00
2019-05-17T03:48:59.550Z,140.00
2019-05-17T03:50:02.793Z,156.00
2019-05-17T03:51:02.357Z,160.00
2019-05-17T03:52:02.486Z,168.00
2019-05-17T03:53:02.183Z,172.00
2019-05-17T03:54:02.063Z,184.00
2019-05-17T03:54:59.409Z,192.00
2019-05-17T03:56:02.651Z,200.00
2019-05-17T03:57:02.653Z,220.00
2019-05-17T03:58:02.637Z,232.00
2019-05-17T03:58:59.304Z,240.00
2019-05-17T03:59:59.278Z,256.00
2019-05-17T04:00:59.251Z,284.00
2019-05-17T04:01:59.240Z,304.00
2019-05-17T04:02:59.205Z,316.00
2019-05-17T04:04:02.549Z,344.00
2019-05-17T04:04:59.149Z,360.00
2019-05-17T04:05:59.140Z,368.00
2019-05-17T04:06:59.105Z,392.00
2019-05-17T04:07:59.077Z,416.00
2019-05-17T04:08:59.047Z,440.00
2019-05-17T04:09:59.057Z,476.00
2019-05-17T04:11:15.100Z,460.00
2019-05-17T04:11:58.978Z,472.00
2019-05-17T04:12:58.951Z,520.00
2019-05-17T04:13:58.943Z,544.00
2019-05-17T04:14:58.908Z,540.00
2019-05-17T04:15:58.892Z,532.00
2019-05-17T04:16:58.853Z,520.00
2019-05-17T04:17:58.825Z,536.00
2019-05-17T04:18:58.797Z,548.00
2019-05-17T04:19:58.786Z,552.00
2019-05-17T04:20:58.757Z,552.00
2019-05-17T04:21:58.727Z,564.00
2019-05-17T04:22:58.704Z,580.00
2019-05-17T04:23:58.678Z,592.00
2019-05-17T04:24:58.657Z,636.00
2019-05-17T04:25:58.635Z,672.00
2019-05-17T04:26:58.607Z,680.00
2019-05-17T04:27:58.579Z,664.00
2019-05-17T04:28:58.551Z,628.00
2019-05-17T04:29:58.536Z,624.00
2019-05-17T04:30:58.507Z,620.00
2019-05-17T04:31:58.482Z,612.00
2019-05-17T04:32:58.455Z,612.00
2019-05-17T04:33:58.434Z,608.00
2019-05-17T04:34:58.414Z,616.00
2019-05-17T04:35:58.383Z,656.00
2019-05-17T04:36:58.362Z,684.00
2019-05-17T04:37:58.335Z,712.00
2019-05-17T04:38:58.310Z,712.00
2019-05-17T04:39:58.285Z,712.00
2019-05-17T04:40:58.256Z,704.00
2019-05-17T04:41:58.231Z,720.00
2019-05-17T04:42:58.220Z,768.00
2019-05-17T04:43:58.184Z,800.00
2019-05-17T04:44:58.163Z,840.00
2019-05-17T04:45:58.140Z,888.00
2019-05-17T04:46:58.110Z,928.00
2019-05-17T04:47:58.088Z,964.00
2019-05-17T04:48:58.064Z,1008.00
2019-05-17T04:49:58.038Z,1056.00
2019-05-17T04:50:58.022Z,1056.00
2019-05-17T04:51:57.990Z,1092.00
2019-05-17T04:52:57.973Z,1112.00
2019-05-17T04:53:57.940Z,1152.00
2019-05-17T04:54:57.908Z,1192.00
2019-05-17T04:55:57.887Z,1252.00
2019-05-17T04:56:57.866Z,1304.00
2019-05-17T04:57:57.849Z,1388.00
2019-05-17T04:58:57.836Z,1512.00
2019-05-17T04:59:57.783Z,1624.00
2019-05-17T05:00:57.770Z,1744.00
2019-05-17T05:01:57.741Z,1804.00
2019-05-17T05:02:57.738Z,1860.00
2019-05-17T05:03:57.692Z,1768.00
2019-05-17T05:04:57.681Z,1688.00
2019-05-17T05:05:57.642Z,1612.00
2019-05-17T05:06:57.616Z,1532.00
2019-05-17T05:07:57.588Z,1468.00
2019-05-17T05:08:57.566Z,1496.00
2019-05-17T05:09:57.551Z,1544.00
2019-05-17T05:10:57.524Z,1652.00
2019-05-17T05:12:02.715Z,1620.00
2019-05-17T05:12:57.473Z,1544.00
2019-05-17T05:13:57.439Z,1524.00
2019-05-17T05:14:57.417Z,1464.00
2019-05-17T05:15:57.392Z,1396.00
2019-05-17T05:16:57.371Z,1356.00
2019-05-17T05:17:57.341Z,1388.00
2019-05-17T05:18:57.320Z,1436.00
2019-05-17T05:19:57.305Z,1448.00
2019-05-17T05:20:57.276Z,1440.00
2019-05-17T05:21:57.242Z,1456.00
2019-05-17T05:22:57.222Z,1440.00
2019-05-17T05:23:57.202Z,1424.00
2019-05-17T05:24:57.182Z,1452.00
2019-05-17T05:25:57.140Z,1460.00
2019-05-17T05:26:57.120Z,1504.00
2019-05-17T05:27:57.095Z,1620.00
2019-05-17T05:28:57.068Z,1704.00
2019-05-17T05:29:57.050Z,1804.00
2019-05-17T05:30:57.023Z,1904.00
2019-05-17T05:31:56.988Z,1980.00
2019-05-17T05:32:56.974Z,2084.00
2019-05-17T05:33:56.951Z,2160.00
2019-05-17T05:34:56.924Z,2128.00
2019-05-17T05:35:56.897Z,2020.00
2019-05-17T05:36:56.876Z,1964.00
2019-05-17T05:37:56.850Z,2096.00
2019-05-17T05:38:56.824Z,2152.00
2019-05-17T05:39:56.806Z,2180.00
2019-05-17T05:40:56.774Z,2252.00
2019-05-17T05:42:06.949Z,2220.00
2019-05-17T05:42:57.310Z,2280.00
2019-05-17T05:43:56.700Z,2336.00
2019-05-17T05:44:56.672Z,2384.00
2019-05-17T05:45:56.651Z,2428.00
2019-05-17T05:46:56.631Z,2504.00
2019-05-17T05:47:56.607Z,2620.00
2019-05-17T05:48:56.579Z,2860.00
2019-05-17T05:49:56.555Z,2872.00
2019-05-17T05:50:56.527Z,2796.00
2019-05-17T05:51:56.503Z,2720.00
2019-05-17T05:52:56.487Z,2672.00
2019-05-17T05:53:56.455Z,2856.00
2019-05-17T05:54:56.433Z,3028.00
2019-05-17T05:55:56.402Z,2924.00
2019-05-17T05:56:56.395Z,2948.00
2019-05-17T05:57:56.357Z,3092.00
2019-05-17T05:58:56.331Z,3108.00
2019-05-17T05:59:56.310Z,3028.00
2019-05-17T06:00:56.282Z,2868.00
2019-05-17T06:01:56.258Z,2912.00
2019-05-17T06:02:56.234Z,3060.00
2019-05-17T06:03:56.211Z,3004.00
2019-05-17T06:04:56.179Z,2984.00
2019-05-17T06:05:56.159Z,2924.00
2019-05-17T06:06:56.141Z,2828.00
2019-05-17T06:07:56.122Z,2828.00
2019-05-17T06:08:56.083Z,2900.00
2019-05-17T06:09:56.062Z,2940.00
2019-05-17T06:10:56.036Z,2988.00
2019-05-17T06:11:56.012Z,2860.00
2019-05-17T06:12:55.989Z,2852.00
2019-05-17T06:13:55.964Z,2772.00
2019-05-17T06:14:55.936Z,2580.00
2019-05-17T06:15:55.913Z,2768.00
2019-05-17T06:16:55.890Z,2968.00
2019-05-17T06:17:55.866Z,3024.00
2019-05-17T06:18:55.842Z,3044.00
2019-05-17T06:19:55.816Z,3176.00
2019-05-17T06:20:55.790Z,3248.00
2019-05-17T06:21:55.768Z,3344.00
2019-05-17T06:22:55.746Z,3348.00
2019-05-17T06:23:55.721Z,3652.00
2019-05-17T06:24:55.696Z,3912.00
2019-05-17T06:25:55.691Z,4056.00
2019-05-17T06:26:55.646Z,3888.00
2019-05-17T06:27:55.622Z,3828.00
2019-05-17T06:28:55.597Z,3784.00
2019-05-17T06:29:55.574Z,3836.00
2019-05-17T06:30:55.550Z,3836.00
2019-05-17T06:31:55.525Z,3700.00
2019-05-17T06:32:55.500Z,3804.00
2019-05-17T06:33:55.479Z,3956.00
2019-05-17T06:34:55.453Z,4060.00
2019-05-17T06:35:55.427Z,4404.00
2019-05-17T06:36:55.395Z,4888.00
2019-05-17T06:37:55.375Z,5028.00
2019-05-17T06:38:55.349Z,5004.00
2019-05-17T06:39:55.327Z,5072.00
2019-05-17T06:40:55.308Z,4844.00
2019-05-17T06:41:55.281Z,4760.00
2019-05-17T06:42:55.253Z,5344.00
2019-05-17T06:43:55.231Z,6236.00
2019-05-17T06:44:55.210Z,6380.00
2019-05-17T06:45:55.183Z,5928.00
2019-05-17T06:46:55.155Z,5716.00
2019-05-17T06:47:55.132Z,5700.00
2019-05-17T06:48:55.118Z,5900.00
2019-05-17T06:49:55.099Z,5996.00
2019-05-17T06:50:55.055Z,5680.00
2019-05-17T06:51:55.037Z,6092.00
2019-05-17T06:52:55.011Z,6692.00
2019-05-17T06:53:54.988Z,6964.00
2019-05-17T06:54:54.961Z,7288.00
2019-05-17T06:55:54.938Z,7452.00
2019-05-17T06:56:54.912Z,7420.00
2019-05-17T06:57:54.895Z,7508.00
2019-05-17T06:58:54.867Z,7452.00
2019-05-17T06:59:54.846Z,6848.00
2019-05-17T07:00:54.817Z,6408.00
2019-05-17T07:01:54.811Z,6680.00
2019-05-17T07:02:54.773Z,6816.00
2019-05-17T07:03:54.757Z,6528.00
2019-05-17T07:04:54.721Z,6172.00
2019-05-17T07:05:54.701Z,6000.00
2019-05-17T07:06:54.673Z,6216.00
2019-05-17T07:07:54.668Z,6248.00
2019-05-17T07:08:54.636Z,5840.00
2019-05-17T07:09:54.602Z,5768.00
2019-05-17T07:10:54.581Z,5928.00
2019-05-17T07:11:54.559Z,6216.00
2019-05-17T07:12:58.722Z,6272.00
2019-05-17T07:13:54.506Z,6296.00
2019-05-17T07:14:54.478Z,6860.00
2019-05-17T07:15:54.462Z,7024.00
2019-05-17T07:16:54.441Z,6684.00
2019-05-17T07:17:54.410Z,6740.00
2019-05-17T07:18:54.382Z,6464.00
2019-05-17T07:19:54.365Z,6020.00
2019-05-17T07:20:54.344Z,6104.00
2019-05-17T07:21:54.328Z,6524.00
2019-05-17T07:22:54.295Z,6752.00
2019-05-17T07:23:54.272Z,7028.00
2019-05-17T07:24:54.248Z,6776.00
2019-05-17T07:25:54.227Z,7148.00
2019-05-17T07:26:54.198Z,7632.00
2019-05-17T07:27:54.178Z,7312.00
2019-05-17T07:28:54.155Z,7060.00
2019-05-17T07:29:54.128Z,7472.00
2019-05-17T07:30:54.106Z,8096.00
2019-05-17T07:31:54.084Z,8604.00
2019-05-17T07:32:54.062Z,8408.00
2019-05-17T07:33:54.896Z,8832.00
2019-05-17T07:34:54.013Z,9376.00
2019-05-17T07:35:53.988Z,10028.00
2019-05-17T07:36:53.964Z,10408.00
2019-05-17T07:37:53.937Z,10200.00
2019-05-17T07:38:53.918Z,9908.00
2019-05-17T07:40:01.190Z,9660.00
2019-05-17T07:40:53.871Z,9408.00
2019-05-17T07:41:53.848Z,9680.00
2019-05-17T07:43:06.907Z,9944.00
2019-05-17T07:43:53.804Z,9956.00
2019-05-17T07:44:53.794Z,10116.00
2019-05-17T07:45:53.754Z,10816.00
2019-05-17T07:46:53.732Z,11132.00
2019-05-17T07:47:53.710Z,11292.00
2019-05-17T07:48:53.677Z,11232.00
2019-05-17T07:49:54.629Z,11192.00
2019-05-17T07:50:53.635Z,11164.00
2019-05-17T07:51:53.616Z,11128.00
2019-05-17T07:52:53.591Z,11128.00
2019-05-17T07:53:53.568Z,11060.00
2019-05-17T07:54:53.539Z,12040.00
2019-05-17T07:55:53.522Z,13160.00
2019-05-17T07:56:53.503Z,13240.00
2019-05-17T07:57:53.473Z,13204.00
2019-05-17T07:58:53.449Z,13548.00
2019-05-17T07:59:53.433Z,13980.00
2019-05-17T08:00:53.407Z,14356.00
2019-05-17T08:01:53.389Z,14524.00
2019-05-17T08:02:53.363Z,14060.00
2019-05-17T08:03:53.343Z,13108.00
2019-05-17T08:04:53.319Z,11744.00
2019-05-17T08:05:53.296Z,11236.00
2019-05-17T08:06:53.281Z,12124.00
2019-05-17T08:07:53.265Z,13520.00
2019-05-17T08:08:53.230Z,14336.00
2019-05-17T08:09:53.219Z,14552.00
2019-05-17T08:10:53.186Z,14360.00
2019-05-17T08:11:53.172Z,14308.00
2019-05-17T08:12:53.143Z,14460.00
2019-05-17T08:13:53.127Z,14316.00
2019-05-17T08:14:53.115Z,13792.00
2019-05-17T08:15:53.076Z,13708.00
2019-05-17T08:16:53.055Z,14512.00
2019-05-17T08:17:53.033Z,15112.00
2019-05-17T08:18:53.009Z,16196.00
2019-05-17T08:19:52.988Z,18080.00
2019-05-17T08:20:52.969Z,19520.00
2019-05-17T08:21:52.945Z,20128.00
2019-05-17T08:22:52.931Z,19680.00
2019-05-17T08:23:52.905Z,19168.00
2019-05-17T08:24:52.881Z,18656.00
2019-05-17T08:25:56.185Z,16476.00
2019-05-17T08:26:52.840Z,15132.00
2019-05-17T08:27:52.810Z,14668.00
2019-05-17T08:28:52.797Z,16024.00
2019-05-17T08:29:52.774Z,17024.00
2019-05-17T08:30:52.756Z,16672.00
2019-05-17T08:31:52.737Z,17184.00
2019-05-17T08:32:52.710Z,18848.00
2019-05-17T08:33:52.690Z,20896.00
2019-05-17T08:34:52.668Z,24736.00
2019-05-17T08:35:52.649Z,28000.00
2019-05-17T08:36:52.628Z,33664.00
2019-05-17T08:37:52.600Z,43744.00
2019-05-17T08:38:52.586Z,65344.00
2019-05-17T08:39:52.566Z,53856.00
2019-05-17T08:40:52.547Z,46272.00
2019-05-17T08:41:52.536Z,41312.00
2019-05-17T08:42:52.504Z,34688.00
2019-05-17T08:43:52.485Z,32160.00
2019-05-17T08:44:52.464Z,27968.00
2019-05-17T08:45:52.444Z,21888.00
2019-05-17T08:46:52.425Z,17472.00
2019-05-17T08:47:52.405Z,15176.00
2019-05-17T08:48:52.400Z,12956.00
2019-05-17T08:49:52.372Z,11124.00
2019-05-17T08:50:52.348Z,10176.00
2019-05-17T08:51:52.334Z,9572.00
2019-05-17T08:52:52.312Z,9160.00
2019-05-17T08:53:52.292Z,9156.00
2019-05-17T08:54:52.284Z,9764.00
2019-05-17T08:55:52.257Z,10528.00
2019-05-17T08:56:52.229Z,10916.00
2019-05-17T08:57:52.207Z,11284.00
2019-05-17T08:58:52.195Z,11564.00
2019-05-17T08:59:52.176Z,12124.00
2019-05-17T09:00:52.152Z,14448.00
2019-05-17T09:01:52.134Z,17312.00
2019-05-17T09:02:52.114Z,17536.00
2019-05-17T09:03:52.093Z,18176.00
2019-05-17T09:04:52.076Z,18144.00
2019-05-17T09:05:52.867Z,18112.00
2019-05-17T09:06:52.034Z,18272.00
2019-05-17T09:07:52.014Z,18720.00
2019-05-17T09:08:51.996Z,18368.00
2019-05-17T09:09:51.975Z,18208.00
2019-05-17T09:10:51.956Z,20064.00
2019-05-17T09:11:51.936Z,22752.00
2019-05-17T09:12:51.913Z,23168.00
2019-05-17T09:13:57.917Z,21888.00
2019-05-17T09:14:51.878Z,20608.00
2019-05-17T09:15:51.861Z,20768.00
2019-05-17T09:16:51.841Z,21952.00
2019-05-17T09:17:51.816Z,21472.00
2019-05-17T09:18:51.792Z,18976.00
2019-05-17T09:19:54.336Z,16104.00
2019-05-17T09:20:51.758Z,14084.00
2019-05-17T09:21:51.737Z,12640.00
2019-05-17T09:22:51.715Z,12012.00
2019-05-17T09:23:51.705Z,12492.00
2019-05-17T09:24:51.685Z,13684.00
2019-05-17T09:25:51.656Z,14768.00
2019-05-17T09:26:51.651Z,15432.00
2019-05-17T09:27:51.623Z,15360.00
2019-05-17T09:28:51.603Z,14884.00
2019-05-17T09:29:51.583Z,14096.00
2019-05-17T09:30:51.563Z,14208.00
2019-05-17T09:31:51.546Z,14364.00
2019-05-17T09:32:51.526Z,14708.00
2019-05-17T09:33:51.508Z,14568.00
2019-05-17T09:34:51.485Z,14816.00
2019-05-17T09:35:51.469Z,15016.00
2019-05-17T09:36:51.449Z,15256.00
2019-05-17T09:37:51.426Z,15420.00
2019-05-17T09:38:51.409Z,17184.00
2019-05-17T09:39:51.388Z,20960.00
2019-05-17T09:40:51.367Z,25984.00
2019-05-17T09:41:51.352Z,31136.00
2019-05-17T09:42:51.327Z,36576.00
2019-05-17T09:43:51.314Z,39648.00
2019-05-17T09:44:51.291Z,38784.00
2019-05-17T09:45:51.273Z,35072.00
2019-05-17T09:46:51.253Z,30656.00
2019-05-17T09:47:51.232Z,25760.00
2019-05-17T09:48:51.212Z,23072.00
2019-05-17T09:49:51.189Z,23840.00
2019-05-17T09:50:51.171Z,27168.00
2019-05-17T09:51:51.157Z,33472.00
2019-05-17T09:52:51.141Z,42208.00
2019-05-17T09:53:51.117Z,49088.00
2019-05-17T09:55:00.533Z,58144.00
2019-05-17T09:56:51.189Z,46400.00
2019-05-17T09:57:51.147Z,40416.00
2019-05-17T09:59:37.877Z,32160.00
2019-05-17T10:00:46.049Z,28608.00
2019-05-17T10:02:40.143Z,22432.00
2019-05-17T10:03:30.965Z,19968.00
2019-05-17T10:04:30.706Z,18336.00
2019-05-17T10:05:31.232Z,16128.00
2019-05-17T10:06:30.669Z,14240.00
2019-05-17T10:07:30.654Z,12912.00
2019-05-17T10:08:30.634Z,12024.00
2019-05-17T10:09:30.617Z,12868.00
2019-05-17T10:10:30.601Z,14996.00
2019-05-17T10:11:30.823Z,17920.00
2019-05-17T10:12:30.564Z,21056.00
2019-05-17T10:13:30.548Z,24352.00
2019-05-17T10:14:31.418Z,25184.00
2019-05-17T10:15:30.521Z,25152.00
2019-05-17T10:16:30.830Z,26880.00
2019-05-17T10:17:30.473Z,29088.00
2019-05-17T10:18:30.459Z,29696.00
2019-05-17T10:19:30.437Z,30432.00
2019-05-17T10:20:30.427Z,33536.00
2019-05-17T10:21:30.510Z,31744.00
2019-05-17T10:22:30.591Z,30944.00
2019-05-17T10:23:30.373Z,29728.00
2019-05-17T10:24:37.959Z,28736.00
2019-05-17T10:25:30.335Z,28128.00
2019-05-17T10:26:30.524Z,27648.00
2019-05-17T10:27:30.406Z,27520.00
2019-05-17T10:28:30.292Z,26880.00
2019-05-17T10:29:30.265Z,26208.00
2019-05-17T10:30:30.247Z,26528.00
2019-05-17T10:31:30.478Z,28960.00
2019-05-17T10:32:30.869Z,29728.00
2019-05-17T10:33:30.198Z,24768.00
2019-05-17T10:34:30.183Z,20416.00
2019-05-17T10:35:30.163Z,17824.00
2019-05-17T10:36:30.146Z,15752.00
2019-05-17T10:37:30.398Z,15072.00
2019-05-17T10:38:30.163Z,15696.00
2019-05-17T10:39:30.095Z,17280.00
2019-05-17T10:40:30.081Z,19520.00
2019-05-17T10:41:30.237Z,23136.00
2019-05-17T10:42:30.565Z,25184.00
2019-05-17T10:43:30.044Z,27200.00
2019-05-17T10:44:43.650Z,32000.00
2019-05-17T10:45:30.494Z,36736.00
2019-05-17T10:46:30.216Z,37568.00
2019-05-17T10:47:30.254Z,35680.00
2019-05-17T10:48:30.230Z,33792.00
2019-05-17T10:49:29.922Z,34944.00
2019-05-17T10:50:30.026Z,36352.00
2019-05-17T10:51:29.889Z,33728.00
2019-05-17T10:52:30.125Z,31136.00
2019-05-17T10:53:29.927Z,30272.00
2019-05-17T10:54:30.196Z,29888.00
2019-05-17T10:55:30.321Z,31008.00
2019-05-17T10:56:29.803Z,35008.00
2019-05-17T10:57:30.263Z,41152.00
2019-05-17T10:58:29.815Z,52928.00
2019-05-17T10:59:29.755Z,52672.00
2019-05-17T11:00:30.286Z,54176.00
2019-05-17T11:01:30.546Z,54496.00
2019-05-17T11:02:30.366Z,51744.00
2019-05-17T11:03:29.780Z,48000.00
2019-05-17T11:04:29.669Z,42080.00
2019-05-17T11:05:30.862Z,40320.00
2019-05-17T11:06:30.236Z,40256.00
2019-05-17T11:07:29.622Z,44832.00
2019-05-17T11:08:29.612Z,38080.00
2019-05-17T11:09:31.089Z,37888.00
2019-05-17T11:10:29.576Z,37888.00
2019-05-17T11:11:29.561Z,40096.00
2019-05-17T11:12:29.545Z,44416.00
2019-05-17T11:13:29.533Z,48832.00
2019-05-17T11:14:29.564Z,63520.00
2019-05-17T11:15:29.495Z,65632.00
2019-05-17T11:16:29.481Z,56192.00
2019-05-17T11:17:29.463Z,63744.00
2019-05-17T11:18:29.444Z,63808.00
2019-05-17T11:19:29.435Z,60352.00
2019-05-17T11:20:29.419Z,58080.00
2019-05-17T11:21:29.406Z,56064.00
2019-05-17T11:22:29.418Z,58432.00
2019-05-17T11:23:29.387Z,63168.00
2019-05-17T11:24:29.360Z,97184.00
2019-05-17T11:25:29.345Z,59072.00
2019-05-17T11:26:29.335Z,54496.00
2019-05-17T11:27:29.316Z,46400.00
2019-05-17T11:28:29.301Z,42336.00
2019-05-17T11:29:29.302Z,39808.00
2019-05-17T11:30:29.271Z,38656.00
2019-05-17T11:31:29.261Z,39360.00
2019-05-17T11:32:29.274Z,41088.00
2019-05-17T11:33:29.231Z,42048.00
2019-05-17T11:34:29.215Z,44064.00
2019-05-17T11:35:29.202Z,50560.00
2019-05-17T11:36:29.190Z,60000.00
2019-05-17T11:37:29.178Z,70944.00
2019-05-17T11:38:29.163Z,75872.00
2019-05-17T11:39:29.146Z,61184.00
2019-05-17T11:40:29.141Z,136768.00
2019-05-17T11:41:29.117Z,47360.00
2019-05-17T11:42:29.104Z,37824.00
2019-05-17T11:43:29.090Z,30752.00
2019-05-17T11:44:29.077Z,26720.00
2019-05-17T11:45:32.465Z,25888.00
2019-05-17T11:46:36.242Z,27488.00
2019-05-17T11:47:29.032Z,30880.00
2019-05-17T11:48:29.020Z,36864.00
2019-05-17T11:49:29.013Z,43200.00
2019-05-17T11:50:29.008Z,46784.00
2019-05-17T11:51:28.975Z,41664.00
2019-05-17T11:52:28.967Z,38112.00
2019-05-17T11:53:28.955Z,38304.00
2019-05-17T11:54:28.949Z,39296.00
2019-05-17T11:55:28.927Z,43392.00
2019-05-17T11:56:28.906Z,50656.00
2019-05-17T11:57:28.895Z,64800.00
2019-05-17T11:58:28.880Z,76864.00
2019-05-17T11:59:28.879Z,53952.00
2019-05-17T12:00:28.855Z,91840.00
2019-05-17T12:01:28.842Z,91552.00
2019-05-17T12:02:28.825Z,102400.00
2019-05-17T12:03:28.810Z,52544.00
2019-05-17T12:04:28.797Z,57664.00
2019-05-17T12:05:28.788Z,54688.00
2019-05-17T12:06:28.766Z,45888.00
2019-05-17T12:07:28.764Z,41856.00
2019-05-17T12:08:28.744Z,41760.00
2019-05-17T12:09:36.897Z,43616.00
2019-05-17T12:10:28.753Z,42528.00
2019-05-17T12:11:28.705Z,42784.00
2019-05-17T12:12:28.693Z,42432.00
2019-05-17T12:13:28.677Z,42432.00
2019-05-17T12:14:28.665Z,43680.00
2019-05-17T12:15:43.635Z,45568.00
2019-05-17T12:16:28.635Z,47168.00
2019-05-17T12:17:28.625Z,50528.00
2019-05-17T12:18:28.606Z,49440.00
2019-05-17T12:19:28.596Z,48960.00
2019-05-17T12:20:28.578Z,67872.00
2019-05-17T12:21:28.569Z,50944.00
2019-05-17T12:22:28.557Z,45856.00
2019-05-17T12:23:28.554Z,40544.00